createdAt,value
2022-12-23T00:01:20.114Z,20.60
2022-12-23T00:03:48.737Z,14.80
2022-12-23T00:06:19.078Z,14.20
2022-12-23T00:08:47.733Z,16.80
2022-12-23T00:11:20.554Z,19.20
2022-12-23T00:14:08.005Z,15.80
2022-12-23T00:16:37.972Z,16.20
2022-12-23T00:19:06.623Z,15.70
2022-12-23T00:21:36.286Z,13.40
2022-12-23T00:24:05.488Z,20.00
2022-12-23T00:26:34.051Z,16.40
2022-12-23T00:29:04.725Z,9.50
2022-12-23T00:31:33.605Z,20.40
2022-12-23T00:34:02.216Z,24.40
2022-12-23T00:36:31.493Z,16.10
2022-12-23T00:39:19.127Z,13.70
2022-12-23T00:42:05.895Z,9.60
2022-12-23T00:44:34.655Z,14.90
2022-12-23T00:47:03.225Z,18.60
2022-12-23T00:49:43.682Z,21.30
2022-12-23T00:52:17.779Z,12.60
2022-12-23T00:54:46.464Z,21.90
2022-12-23T00:57:15.047Z,16.40
2022-12-23T00:59:43.674Z,11.10
2022-12-23T01:02:31.291Z,16.20
2022-12-23T01:05:18.534Z,14.30
2022-12-23T01:07:47.162Z,18.90
2022-12-23T01:10:15.895Z,18.40
2022-12-23T01:12:44.659Z,14.80
2022-12-23T01:15:13.250Z,17.30
2022-12-23T01:17:41.777Z,15.70
2022-12-23T01:20:11.391Z,17.10
2022-12-23T01:22:39.969Z,17.90
2022-12-23T01:25:09.569Z,9.40
2022-12-23T01:27:38.167Z,19.20
2022-12-23T01:30:10.111Z,15.70
2022-12-23T01:32:38.622Z,18.20
2022-12-23T01:35:09.205Z,15.50
2022-12-23T01:37:37.800Z,11.30
2022-12-23T01:40:08.984Z,16.80
2022-12-23T01:42:44.476Z,19.20
2022-12-23T01:45:30.624Z,10.40
2022-12-23T01:48:02.188Z,17.70
2022-12-23T01:50:45.275Z,16.30
2022-12-23T01:53:52.947Z,22.40
2022-12-23T01:56:32.792Z,11.40
2022-12-23T01:59:38.162Z,13.60
2022-12-23T02:02:25.170Z,15.10
2022-12-23T02:04:54.959Z,26.80
2022-12-23T02:07:41.894Z,14.60
2022-12-23T02:10:11.282Z,17.70
2022-12-23T02:13:20.312Z,13.20
2022-12-23T02:16:18.357Z,16.10
2022-12-23T02:19:02.640Z,23.60
2022-12-23T02:22:15.766Z,16.20
2022-12-23T02:25:18.583Z,21.40
2022-12-23T02:28:00.987Z,12.20
2022-12-23T02:30:59.448Z,22.10
2022-12-23T02:33:41.601Z,17.50
2022-12-23T02:36:39.079Z,9.70
2022-12-23T02:39:44.558Z,19.30
2022-12-23T02:42:31.308Z,18.50
2022-12-23T02:45:23.176Z,15.90
2022-12-23T02:48:15.238Z,17.70
2022-12-23T02:50:46.381Z,18.60
2022-12-23T02:53:30.868Z,20.70
2022-12-23T02:56:02.460Z,14.50
2022-12-23T02:58:41.558Z,16.10
2022-12-23T03:01:11.884Z,14.80
2022-12-23T03:03:41.921Z,12.60
2022-12-23T03:06:43.554Z,11.00
2022-12-23T03:09:43.322Z,8.30
2022-12-23T03:12:36.414Z,15.10
2022-12-23T03:15:13.688Z,15.80
2022-12-23T03:18:01.246Z,13.70
2022-12-23T03:21:07.221Z,22.30
2022-12-23T03:24:10.230Z,17.10
2022-12-23T03:27:16.573Z,13.90
2022-12-23T03:30:19.037Z,7.70
2022-12-23T03:32:53.792Z,11.40
2022-12-23T03:35:34.042Z,18.80
2022-12-23T03:38:03.748Z,17.50
2022-12-23T03:40:48.429Z,18.10
2022-12-23T03:43:25.643Z,21.40
2022-12-23T03:46:03.379Z,23.10
2022-12-23T03:48:40.517Z,19.10
2022-12-23T03:51:20.665Z,16.00
2022-12-23T03:54:14.413Z,7.10
2022-12-23T03:56:53.459Z,10.90
2022-12-23T03:59:28.517Z,15.70
2022-12-23T04:02:04.174Z,13.90
2022-12-23T04:05:33.050Z,20.30
2022-12-23T04:08:32.523Z,18.50
2022-12-23T04:11:02.331Z,14.10
2022-12-23T04:13:32.066Z,13.40
2022-12-23T04:16:03.388Z,14.70
2022-12-23T04:18:32.092Z,20.40
2022-12-23T04:21:00.834Z,17.50
2022-12-23T04:23:29.653Z,16.20
2022-12-23T04:25:58.340Z,15.90
2022-12-23T04:28:26.950Z,12.90
2022-12-23T04:30:55.637Z,14.80
2022-12-23T04:33:24.310Z,20.70
2022-12-23T04:35:52.878Z,14.00
2022-12-23T04:38:21.625Z,8.00
2022-12-23T04:40:50.335Z,16.90
2022-12-23T04:43:19.007Z,12.90
2022-12-23T04:45:52.077Z,15.90
2022-12-23T04:48:21.112Z,15.10
2022-12-23T04:50:49.695Z,15.30
2022-12-23T04:53:18.310Z,15.70
2022-12-23T04:55:51.749Z,14.10
2022-12-23T04:58:22.354Z,21.60
2022-12-23T05:01:04.928Z,15.80
2022-12-23T05:06:02.833Z,14.70
2022-12-23T05:08:32.154Z,19.00
2022-12-23T05:11:01.110Z,18.70
2022-12-23T05:13:29.669Z,13.90
2022-12-23T05:15:58.385Z,15.20
2022-12-23T05:18:26.875Z,19.50
2022-12-23T05:20:55.652Z,19.60
2022-12-23T05:23:24.620Z,22.30
2022-12-23T05:25:54.724Z,19.70
2022-12-23T05:28:24.389Z,15.00
2022-12-23T05:31:05.626Z,17.60
2022-12-23T05:33:35.301Z,22.10
2022-12-23T05:36:05.237Z,15.60
2022-12-23T05:38:34.478Z,15.30
2022-12-23T05:41:03.856Z,12.90
2022-12-23T05:43:32.602Z,20.10
2022-12-23T05:46:01.337Z,12.70
2022-12-23T05:48:30.191Z,13.70
2022-12-23T05:50:58.805Z,7.90
2022-12-23T05:53:27.531Z,19.60
2022-12-23T05:55:56.331Z,14.20
2022-12-23T05:58:25.505Z,19.00
2022-12-23T06:00:54.179Z,16.80
2022-12-23T06:03:23.216Z,17.60
2022-12-23T06:05:52.542Z,16.90
2022-12-23T06:08:21.601Z,15.40
2022-12-23T06:10:50.447Z,11.70
2022-12-23T06:13:19.177Z,15.90
2022-12-23T06:15:47.799Z,17.80
2022-12-23T06:18:16.497Z,12.70
2022-12-23T06:20:48.872Z,19.00
2022-12-23T06:23:17.583Z,12.90
2022-12-23T06:25:46.473Z,11.00
2022-12-23T06:28:15.355Z,19.10
2022-12-23T06:30:43.921Z,16.30
2022-12-23T06:33:12.612Z,13.00
2022-12-23T06:35:41.350Z,16.30
2022-12-23T06:38:12.239Z,17.80
2022-12-23T06:40:41.342Z,17.10
2022-12-23T06:43:11.524Z,19.20
2022-12-23T06:45:41.138Z,21.30
2022-12-23T06:48:09.948Z,20.80
2022-12-23T06:50:38.739Z,22.50
2022-12-23T06:53:07.546Z,14.80
2022-12-23T06:55:36.607Z,16.20
2022-12-23T06:58:06.729Z,20.30
2022-12-23T07:00:35.843Z,19.10
2022-12-23T07:03:04.813Z,18.70
2022-12-23T07:05:37.594Z,15.90
2022-12-23T07:08:06.687Z,9.50
2022-12-23T07:10:35.428Z,12.00
2022-12-23T07:13:04.250Z,19.70
2022-12-23T07:15:33.108Z,18.70
2022-12-23T07:18:01.881Z,15.70
2022-12-23T07:20:30.572Z,10.90
2022-12-23T07:22:59.796Z,12.00
2022-12-23T07:25:28.765Z,13.10
2022-12-23T07:27:57.814Z,18.40
2022-12-23T07:30:27.142Z,16.10
2022-12-23T07:32:55.986Z,16.40
2022-12-23T07:35:24.908Z,13.30
2022-12-23T07:37:58.218Z,18.50
2022-12-23T07:40:27.769Z,21.90
2022-12-23T07:42:59.126Z,17.60
2022-12-23T07:45:29.706Z,12.70
2022-12-23T07:48:02.807Z,19.30
2022-12-23T07:50:32.212Z,11.20
2022-12-23T07:53:01.173Z,21.70
2022-12-23T07:55:30.045Z,24.40
2022-12-23T07:57:59.031Z,22.40
2022-12-23T08:00:27.902Z,29.10
2022-12-23T08:02:56.968Z,19.90
2022-12-23T08:05:26.130Z,28.40
2022-12-23T08:07:55.208Z,23.10
2022-12-23T08:10:23.997Z,22.10
2022-12-23T08:12:52.967Z,16.80
2022-12-23T08:15:22.792Z,27.30
2022-12-23T08:17:51.569Z,29.30
2022-12-23T08:20:20.332Z,16.80
2022-12-23T08:22:49.034Z,20.20
2022-12-23T08:25:18.098Z,10.60
2022-12-23T08:27:46.767Z,14.30
2022-12-23T08:30:16.815Z,20.00
2022-12-23T08:32:45.717Z,20.60
2022-12-23T08:35:14.667Z,24.30
2022-12-23T08:37:43.496Z,13.30
2022-12-23T08:40:12.443Z,21.20
2022-12-23T08:42:41.202Z,20.60
2022-12-23T08:45:10.615Z,22.30
2022-12-23T08:47:39.547Z,21.20
2022-12-23T08:50:09.000Z,14.50
2022-12-23T08:52:37.803Z,20.10
2022-12-23T08:55:06.850Z,23.80
2022-12-23T08:57:35.837Z,25.20
2022-12-23T09:00:05.056Z,27.30
2022-12-23T09:02:34.249Z,19.60
2022-12-23T09:05:03.174Z,26.60
2022-12-23T09:07:32.259Z,16.60
2022-12-23T09:10:01.160Z,19.90
2022-12-23T09:15:44.821Z,21.70
2022-12-23T09:18:13.789Z,21.30
2022-12-23T09:20:43.052Z,22.10
2022-12-23T09:23:11.897Z,20.00
2022-12-23T09:25:40.764Z,23.00
2022-12-23T09:28:09.787Z,22.30
2022-12-23T09:30:38.455Z,22.70
2022-12-23T09:33:09.260Z,20.30
2022-12-23T09:38:08.228Z,21.40
2022-12-23T09:40:40.676Z,22.00
2022-12-23T09:43:37.378Z,13.40
2022-12-23T09:46:24.421Z,20.00
2022-12-23T09:49:15.395Z,15.40
2022-12-23T09:51:45.735Z,22.90
2022-12-23T09:58:03.243Z,26.00
2022-12-23T10:00:49.655Z,23.10
2022-12-23T10:03:34.577Z,20.20
2022-12-23T10:06:36.675Z,21.40
2022-12-23T10:09:08.155Z,19.00
2022-12-23T10:11:42.847Z,30.00
2022-12-23T10:14:32.549Z,28.60
2022-12-23T10:20:49.424Z,13.90
2022-12-23T10:23:36.918Z,21.80
2022-12-23T10:26:35.344Z,24.30
2022-12-23T10:29:21.352Z,22.70
2022-12-23T10:32:17.937Z,31.20
2022-12-23T10:35:01.508Z,19.60
2022-12-23T10:37:41.531Z,24.00
2022-12-23T10:40:20.194Z,17.30
2022-12-23T10:43:10.887Z,12.60
2022-12-23T10:46:17.430Z,20.70
2022-12-23T10:49:06.453Z,19.50
2022-12-23T10:52:06.029Z,25.50
2022-12-23T10:54:37.222Z,15.90
2022-12-23T10:57:07.474Z,19.90
2022-12-23T10:59:37.185Z,27.60
2022-12-23T11:02:12.027Z,21.20
2022-12-23T11:04:47.469Z,30.30
2022-12-23T11:10:25.945Z,30.60
2022-12-23T11:12:55.131Z,28.70
2022-12-23T11:19:02.208Z,24.70
2022-12-23T11:21:33.596Z,22.00
2022-12-23T11:24:19.864Z,25.00
2022-12-23T11:27:12.009Z,19.60
2022-12-23T11:29:54.347Z,23.90
2022-12-23T11:32:28.899Z,24.30
2022-12-23T11:34:57.808Z,23.00
2022-12-23T11:37:41.389Z,23.90
2022-12-23T11:40:27.168Z,21.50
2022-12-23T11:43:03.053Z,21.10
2022-12-23T11:45:37.410Z,25.50
2022-12-23T11:48:26.440Z,22.80
2022-12-23T11:51:01.639Z,26.00
2022-12-23T11:53:31.646Z,21.70
2022-12-23T11:56:10.917Z,28.60
2022-12-23T11:58:52.690Z,30.60
2022-12-23T12:01:25.435Z,32.00
2022-12-23T12:06:32.926Z,27.30
2022-12-23T12:09:04.784Z,22.00
2022-12-23T12:11:44.982Z,20.80
2022-12-23T12:14:32.696Z,30.40
2022-12-23T12:17:17.308Z,30.70
2022-12-23T12:20:31.953Z,31.50
2022-12-23T12:23:30.905Z,25.10
2022-12-23T12:26:12.995Z,29.30
2022-12-23T12:28:47.666Z,26.40
2022-12-23T12:31:38.437Z,27.70
2022-12-23T12:34:44.429Z,21.80
2022-12-23T12:37:54.040Z,22.40
2022-12-23T12:40:41.406Z,30.10
2022-12-23T12:43:35.422Z,21.70
2022-12-23T12:46:21.141Z,22.20
2022-12-23T12:49:38.823Z,23.20
2022-12-23T12:52:19.968Z,26.80
2022-12-23T12:55:00.612Z,23.70
2022-12-23T12:57:32.072Z,23.70
2022-12-23T13:00:06.082Z,22.80
2022-12-23T13:03:14.180Z,19.50
2022-12-23T13:06:37.539Z,22.20
2022-12-23T13:09:25.836Z,24.40
2022-12-23T13:12:49.650Z,21.40
2022-12-23T13:15:39.746Z,23.60
2022-12-23T13:18:58.710Z,25.30
2022-12-23T13:21:56.582Z,23.90
2022-12-23T13:24:49.200Z,28.30
2022-12-23T13:27:41.108Z,32.00
2022-12-23T13:30:21.854Z,31.90
2022-12-23T13:33:35.572Z,30.20
2022-12-23T13:36:29.811Z,26.60
2022-12-23T13:39:23.526Z,19.10
2022-12-23T13:42:03.005Z,18.20
2022-12-23T13:44:35.608Z,24.10
2022-12-23T13:47:26.149Z,22.70
2022-12-23T13:50:24.303Z,22.70
2022-12-23T13:53:25.194Z,18.50
2022-12-23T13:56:39.325Z,23.70
2022-12-23T13:59:11.944Z,25.30
2022-12-23T14:04:36.373Z,30.10
2022-12-23T14:07:06.868Z,25.90
2022-12-23T14:09:38.549Z,24.60
2022-12-23T14:12:31.285Z,34.50
2022-12-23T14:15:29.121Z,25.90
2022-12-23T14:18:55.189Z,26.20
2022-12-23T14:21:39.207Z,21.40
2022-12-23T14:24:22.771Z,27.00
2022-12-23T14:27:36.520Z,28.10
2022-12-23T14:30:42.861Z,26.40
2022-12-23T14:33:48.551Z,26.00
2022-12-23T14:36:25.672Z,30.70
2022-12-23T14:39:12.863Z,34.70
2022-12-23T14:45:43.521Z,37.80
2022-12-23T14:48:44.729Z,37.10
2022-12-23T14:51:35.886Z,36.60
2022-12-23T14:54:07.674Z,30.30
2022-12-23T14:56:39.551Z,29.70
2022-12-23T14:59:26.938Z,26.30
2022-12-23T15:02:16.708Z,18.60
2022-12-23T15:04:54.888Z,23.20
2022-12-23T15:07:41.121Z,20.00
2022-12-23T15:10:20.578Z,26.70
2022-12-23T15:12:57.815Z,27.90
2022-12-23T15:15:30.930Z,33.80
2022-12-23T15:18:12.252Z,34.70
2022-12-23T15:20:45.265Z,33.10
2022-12-23T15:25:49.941Z,24.20
2022-12-23T15:30:56.432Z,28.00
2022-12-23T15:36:37.639Z,31.70
2022-12-23T15:39:21.003Z,30.30
2022-12-23T15:41:49.743Z,25.20
2022-12-23T15:44:26.515Z,28.30
2022-12-23T15:46:55.264Z,31.70
2022-12-23T15:49:23.990Z,27.60
2022-12-23T15:52:19.907Z,26.00
2022-12-23T15:55:21.940Z,30.40
2022-12-23T15:57:52.342Z,32.90
2022-12-23T16:00:51.936Z,34.90
2022-12-23T16:03:35.099Z,25.00
2022-12-23T16:06:24.550Z,31.00
2022-12-23T16:09:25.512Z,30.50
2022-12-23T16:12:04.306Z,36.60
2022-12-23T16:14:42.901Z,32.50
2022-12-23T16:17:11.549Z,33.80
2022-12-23T16:20:27.384Z,34.00
2022-12-23T16:23:03.470Z,33.90
2022-12-23T16:25:33.792Z,35.10
2022-12-23T16:28:13.820Z,36.80
2022-12-23T16:30:43.301Z,31.00
2022-12-23T16:33:54.680Z,28.90
2022-12-23T16:36:26.629Z,31.40
2022-12-23T16:39:07.589Z,29.60
2022-12-23T16:41:36.263Z,31.60
2022-12-23T16:44:06.089Z,37.60
2022-12-23T16:46:42.977Z,40.10
2022-12-23T16:49:19.649Z,42.40
2022-12-23T16:51:49.520Z,49.90
2022-12-23T16:54:20.845Z,51.00
2022-12-23T16:56:50.622Z,53.60
2022-12-23T16:59:20.073Z,49.30
2022-12-23T17:01:49.540Z,47.80
2022-12-23T17:04:18.479Z,53.40
2022-12-23T17:06:48.817Z,39.70
2022-12-23T17:09:42.996Z,34.70
2022-12-23T17:12:11.725Z,37.00
2022-12-23T17:14:40.471Z,34.30
2022-12-23T17:17:16.130Z,28.10
2022-12-23T17:19:45.229Z,41.10
2022-12-23T17:22:13.942Z,32.70
2022-12-23T17:24:42.624Z,36.50
2022-12-23T17:27:17.966Z,38.40
2022-12-23T17:29:46.992Z,32.00
2022-12-23T17:32:18.122Z,43.80
2022-12-23T17:34:46.947Z,35.20
2022-12-23T17:37:20.935Z,37.40
2022-12-23T17:39:49.958Z,37.30
2022-12-23T17:42:25.782Z,33.00
2022-12-23T17:44:54.973Z,38.20
2022-12-23T17:47:24.893Z,41.70
2022-12-23T17:49:53.725Z,37.10
2022-12-23T17:52:24.853Z,37.00
2022-12-23T17:54:53.899Z,37.50
2022-12-23T17:57:26.526Z,42.30
2022-12-23T17:59:58.212Z,40.20
2022-12-23T18:02:33.171Z,42.40
2022-12-23T18:05:10.413Z,42.30
2022-12-23T18:07:39.650Z,41.60
2022-12-23T18:10:16.401Z,38.50
2022-12-23T18:12:49.733Z,41.80
2022-12-23T18:15:43.386Z,42.50
2022-12-23T18:18:36.776Z,44.80
2022-12-23T18:21:27.866Z,39.60
2022-12-23T18:23:59.952Z,45.00
2022-12-23T18:26:28.503Z,43.10
2022-12-23T18:28:57.075Z,36.40
2022-12-23T18:31:27.578Z,43.30
2022-12-23T18:33:56.644Z,35.50
2022-12-23T18:36:33.136Z,34.30
2022-12-23T18:39:02.069Z,39.70
2022-12-23T18:41:32.356Z,40.20
2022-12-23T18:44:03.633Z,42.80
2022-12-23T18:46:32.369Z,41.30
2022-12-23T18:49:01.034Z,43.10
2022-12-23T18:51:29.656Z,45.80
2022-12-23T18:53:58.313Z,42.50
2022-12-23T18:56:26.891Z,33.80
2022-12-23T18:58:55.430Z,37.90
2022-12-23T19:01:24.086Z,36.50
2022-12-23T19:03:53.101Z,44.50
2022-12-23T19:06:22.141Z,37.50
2022-12-23T19:08:51.317Z,36.20
2022-12-23T19:11:21.386Z,38.40
2022-12-23T19:13:53.523Z,47.80
2022-12-23T19:16:22.632Z,44.70
2022-12-23T19:18:52.003Z,33.50
2022-12-23T19:21:21.482Z,43.80
2022-12-23T19:23:53.210Z,38.80
2022-12-23T19:26:22.388Z,37.90
2022-12-23T19:28:51.192Z,34.90
2022-12-23T19:31:20.074Z,39.90
2022-12-23T19:33:49.132Z,36.00
2022-12-23T19:36:27.276Z,42.60
2022-12-23T19:38:59.303Z,40.80
2022-12-23T19:41:27.980Z,33.80
2022-12-23T19:43:56.826Z,34.30
2022-12-23T19:46:25.655Z,37.20
2022-12-23T19:48:54.457Z,50.80
2022-12-23T19:51:23.141Z,42.70
2022-12-23T19:53:52.931Z,50.50
2022-12-23T19:56:22.190Z,38.60
2022-12-23T19:58:51.262Z,46.20
2022-12-23T20:01:25.594Z,36.20
2022-12-23T20:03:56.139Z,39.80
2022-12-23T20:06:35.553Z,36.00
2022-12-23T20:09:06.942Z,47.10
2022-12-23T20:11:40.044Z,43.60
2022-12-23T20:14:10.130Z,39.90
2022-12-23T20:16:39.893Z,40.50
2022-12-23T20:19:08.983Z,34.70
2022-12-23T20:21:38.043Z,35.70
2022-12-23T20:24:07.392Z,35.50
2022-12-23T20:26:36.217Z,34.30
2022-12-23T20:29:05.935Z,30.50
2022-12-23T20:31:37.773Z,31.30
2022-12-23T20:34:11.081Z,38.60
2022-12-23T20:36:39.797Z,38.10
2022-12-23T20:39:08.648Z,39.80
2022-12-23T20:41:37.342Z,36.20
2022-12-23T20:46:54.997Z,33.90
2022-12-23T20:49:24.231Z,38.70
2022-12-23T20:51:53.137Z,35.30
2022-12-23T20:54:26.351Z,34.50
2022-12-23T20:56:58.666Z,44.90
2022-12-23T20:59:27.245Z,45.50
2022-12-23T21:01:59.484Z,23.20
2022-12-23T21:04:28.344Z,37.00
2022-12-23T21:06:57.027Z,34.10
2022-12-23T21:09:25.602Z,35.70
2022-12-23T21:11:54.524Z,38.30
2022-12-23T21:14:23.066Z,37.20
2022-12-23T21:16:51.744Z,41.60
2022-12-23T21:19:25.892Z,48.30
2022-12-23T21:21:54.870Z,44.70
2022-12-23T21:24:23.785Z,47.20
2022-12-23T21:26:56.588Z,46.90
2022-12-23T21:29:26.601Z,47.10
2022-12-23T21:31:55.738Z,47.90
2022-12-23T21:34:24.756Z,48.30
2022-12-23T21:36:53.404Z,50.60
2022-12-23T21:39:22.084Z,49.50
2022-12-23T21:41:51.680Z,64.80
2022-12-23T21:44:20.529Z,64.20
2022-12-23T21:46:51.797Z,56.40
2022-12-23T21:49:21.545Z,54.60
2022-12-23T21:53:52.496Z,54.00
2022-12-23T21:56:28.650Z,50.10
2022-12-23T21:59:05.504Z,49.90
2022-12-23T22:01:35.235Z,49.10
2022-12-23T22:04:04.249Z,48.10
2022-12-23T22:06:37.387Z,33.70
2022-12-23T22:09:08.153Z,28.80
2022-12-23T22:11:37.520Z,33.10
2022-12-23T22:14:10.632Z,37.70
2022-12-23T22:16:39.367Z,35.30
2022-12-23T22:19:09.459Z,44.70
2022-12-23T22:21:40.012Z,42.50
2022-12-23T22:24:09.420Z,42.30
2022-12-23T22:26:42.159Z,45.30
2022-12-23T22:29:11.738Z,46.40
2022-12-23T22:31:49.971Z,43.60
2022-12-23T22:34:22.064Z,43.60
2022-12-23T22:36:50.861Z,36.20
2022-12-23T22:39:21.916Z,34.40
2022-12-23T22:41:52.236Z,30.00
2022-12-23T22:44:21.985Z,37.90
2022-12-23T22:46:50.955Z,39.00
2022-12-23T22:49:19.833Z,43.50
2022-12-23T22:51:48.451Z,33.90
2022-12-23T22:54:17.202Z,40.50
2022-12-23T22:56:48.940Z,35.00
2022-12-23T22:59:24.125Z,34.50
2022-12-23T23:01:54.199Z,34.90
2022-12-23T23:04:23.439Z,35.40
2022-12-23T23:06:52.068Z,33.20
2022-12-23T23:09:22.776Z,37.00
2022-12-23T23:11:51.969Z,46.40
2022-12-23T23:14:20.688Z,46.70
2022-12-23T23:16:49.281Z,37.00
2022-12-23T23:19:20.692Z,31.30
2022-12-23T23:21:49.366Z,44.10
2022-12-23T23:24:18.090Z,35.10
2022-12-23T23:26:46.694Z,28.00
2022-12-23T23:29:15.315Z,39.50
2022-12-23T23:31:44.651Z,26.30
2022-12-23T23:34:14.232Z,36.40
2022-12-23T23:36:43.139Z,37.00
2022-12-23T23:39:13.287Z,41.50
2022-12-23T23:41:43.852Z,28.90
2022-12-23T23:44:12.937Z,26.90
2022-12-23T23:46:41.499Z,30.90
2022-12-23T23:49:10.054Z,33.70
2022-12-23T23:51:41.681Z,23.80
2022-12-23T23:54:10.695Z,31.50
2022-12-23T23:56:39.735Z,30.30
2022-12-23T23:59:09.374Z,33.80
